Time;durP1;ratioP1;P1;durP2;ratioP2;P2;SDS_P1;SDS_P2;PMS_P1;PMS_P2;Temp;Humidity;BMP_temperature;BMP_pressure;BME280_temperature;BME280_humidity;BME280_pressure;Samples;Min_cycle;Max_cycle;Signal;HPM_P1;HPM_P2
2023/08/03 00:00:09;;;;;;;1.30;1.20;;;;;;;;;;5114184;28;20445;-65
2023/08/03 00:02:36;;;;;;;1.47;1.10;;;;;;;;;;5114093;28;20778;-65
2023/08/03 00:05:04;;;;;;;1.30;1.17;;;;;;;;;;5113999;28;20442;-65
2023/08/03 00:07:30;;;;;;;1.10;1.00;;;;;;;;;;5113978;28;20531;-65
2023/08/03 00:09:57;;;;;;;1.37;1.27;;;;;;;;;;5113821;28;20540;-65
2023/08/03 00:12:26;;;;;;;1.17;1.00;;;;;;;;;;5113877;28;20817;-65
2023/08/03 00:14:53;;;;;;;1.00;0.90;;;;;;;;;;5114011;28;20446;-65
2023/08/03 00:17:20;;;;;;;2.47;1.27;;;;;;;;;;5113823;28;20473;-65
2023/08/03 00:19:47;;;;;;;1.30;1.00;;;;;;;;;;5113771;28;20529;-65
2023/08/03 00:22:14;;;;;;;1.07;0.97;;;;;;;;;;5113611;28;21014;-65
2023/08/03 00:24:40;;;;;;;1.23;0.90;;;;;;;;;;5113645;28;20519;-65
2023/08/03 00:27:07;;;;;;;1.30;0.80;;;;;;;;;;5113815;28;20532;-65
2023/08/03 00:29:36;;;;;;;1.53;0.70;;;;;;;;;;5113765;28;20476;-65
2023/08/03 00:32:03;;;;;;;1.37;0.80;;;;;;;;;;5113571;28;20481;-65
2023/08/03 00:34:30;;;;;;;2.00;0.90;;;;;;;;;;5113581;28;20449;-65
2023/08/03 00:36:57;;;;;;;1.93;1.57;;;;;;;;;;5113417;28;20445;-65
2023/08/03 00:39:24;;;;;;;1.40;1.00;;;;;;;;;;5113679;28;20477;-65
2023/08/03 00:41:52;;;;;;;1.00;0.90;;;;;;;;;;5113564;28;20531;-65
2023/08/03 00:44:19;;;;;;;1.87;1.20;;;;;;;;;;5113598;28;20536;-65
2023/08/03 00:46:47;;;;;;;1.20;1.10;;;;;;;;;;5113462;28;20454;-65
2023/08/03 00:49:14;;;;;;;1.20;1.10;;;;;;;;;;5113400;28;20448;-65
2023/08/03 00:51:41;;;;;;;1.20;0.90;;;;;;;;;;5115905;28;20486;-65
2023/08/03 00:54:08;;;;;;;1.20;1.10;;;;;;;;;;5117773;28;20455;-65
2023/08/03 00:56:35;;;;;;;1.17;1.07;;;;;;;;;;5117488;28;20471;-65
2023/08/03 00:59:02;;;;;;;1.00;0.90;;;;;;;;;;5117702;28;20458;-65
2023/08/03 01:01:29;;;;;;;1.30;1.20;;;;;;;;;;5117592;28;20533;-65
2023/08/03 01:03:57;;;;;;;1.00;0.90;;;;;;;;;;5117401;28;20528;-65
2023/08/03 01:06:24;;;;;;;1.60;1.50;;;;;;;;;;5117612;28;20777;-65
2023/08/03 01:08:51;;;;;;;2.23;1.20;;;;;;;;;;5117524;28;20535;-65
2023/08/03 01:11:18;;;;;;;2.47;1.00;;;;;;;;;;5117411;28;20444;-65
2023/08/03 01:13:45;;;;;;;1.30;0.90;;;;;;;;;;5117355;28;20583;-65
2023/08/03 01:16:12;;;;;;;1.43;1.20;;;;;;;;;;5117291;28;20877;-65
2023/08/03 01:18:42;;;;;;;1.23;1.07;;;;;;;;;;5117123;28;20449;-65
2023/08/03 01:21:10;;;;;;;1.60;1.50;;;;;;;;;;5117307;28;20442;-65
2023/08/03 01:23:38;;;;;;;1.27;1.17;;;;;;;;;;5117187;28;20448;-65
2023/08/03 01:26:05;;;;;;;1.20;1.10;;;;;;;;;;5116994;28;20836;-65
2023/08/03 01:28:32;;;;;;;2.20;1.50;;;;;;;;;;5117174;28;20868;-65
2023/08/03 01:30:59;;;;;;;1.40;1.30;;;;;;;;;;5116995;28;20539;-65
2023/08/03 01:33:26;;;;;;;1.73;1.20;;;;;;;;;;5117040;28;20997;-65
2023/08/03 01:35:53;;;;;;;3.10;1.50;;;;;;;;;;5117010;28;20527;-65
2023/08/03 01:38:20;;;;;;;3.30;1.30;;;;;;;;;;5116915;28;20455;-65
2023/08/03 01:40:48;;;;;;;1.47;1.37;;;;;;;;;;5116782;28;20446;-65
2023/08/03 01:43:16;;;;;;;1.83;1.10;;;;;;;;;;5116736;28;20555;-65
2023/08/03 01:45:42;;;;;;;2.30;1.27;;;;;;;;;;5116550;28;20444;-65
2023/08/03 01:48:09;;;;;;;1.50;1.40;;;;;;;;;;5116761;28;20535;-65
2023/08/03 01:50:36;;;;;;;2.17;1.13;;;;;;;;;;5116786;28;20450;-65
2023/08/03 01:53:03;;;;;;;1.30;1.20;;;;;;;;;;5116609;28;20490;-65
2023/08/03 01:55:30;;;;;;;1.50;1.20;;;;;;;;;;5116480;28;20474;-65
2023/08/03 01:57:58;;;;;;;1.37;1.27;;;;;;;;;;5116435;28;20450;-65
2023/08/03 02:00:26;;;;;;;1.53;1.23;;;;;;;;;;5116372;28;20533;-65
2023/08/03 02:02:53;;;;;;;4.30;1.40;;;;;;;;;;5116103;28;20452;-65
2023/08/03 02:05:20;;;;;;;2.43;1.40;;;;;;;;;;5116415;28;20445;-65
2023/08/03 02:07:53;;;;;;;1.43;1.33;;;;;;;;;;5116390;28;21023;-65
2023/08/03 02:10:20;;;;;;;1.40;1.30;;;;;;;;;;5116243;28;20448;-65
2023/08/03 02:12:47;;;;;;;2.40;1.40;;;;;;;;;;5115952;28;20505;-65
2023/08/03 02:15:15;;;;;;;2.40;1.73;;;;;;;;;;5116331;28;20450;-65
2023/08/03 02:17:42;;;;;;;3.10;1.70;;;;;;;;;;5116241;28;20485;-65
2023/08/03 02:20:10;;;;;;;3.03;1.80;;;;;;;;;;5116148;28;20444;-65
2023/08/03 02:22:37;;;;;;;1.87;1.40;;;;;;;;;;5116056;28;20888;-65
2023/08/03 02:25:04;;;;;;;1.63;1.50;;;;;;;;;;5115968;28;20544;-65
2023/08/03 02:27:31;;;;;;;2.37;1.47;;;;;;;;;;5115772;28;20448;-65
2023/08/03 02:29:58;;;;;;;2.83;1.67;;;;;;;;;;5115777;28;20927;-65
2023/08/03 02:32:27;;;;;;;2.70;1.40;;;;;;;;;;5115834;28;20479;-65
2023/08/03 02:34:54;;;;;;;2.20;1.57;;;;;;;;;;5115617;28;20449;-65
2023/08/03 02:37:21;;;;;;;1.77;1.60;;;;;;;;;;5115731;28;20812;-65
2023/08/03 02:39:48;;;;;;;2.60;1.77;;;;;;;;;;5115588;28;20532;-65
2023/08/03 02:42:15;;;;;;;2.10;1.53;;;;;;;;;;5115559;28;21130;-65
2023/08/03 02:44:41;;;;;;;1.63;1.50;;;;;;;;;;5115687;28;20531;-65
2023/08/03 02:47:08;;;;;;;1.50;1.40;;;;;;;;;;5115635;28;20535;-65
2023/08/03 02:49:37;;;;;;;1.43;1.30;;;;;;;;;;5115595;28;20571;-65
2023/08/03 02:52:05;;;;;;;2.30;1.70;;;;;;;;;;5115285;28;20535;-65
2023/08/03 02:54:31;;;;;;;1.83;1.50;;;;;;;;;;5115290;28;20448;-65
2023/08/03 02:56:58;;;;;;;1.67;1.57;;;;;;;;;;5115127;28;20469;-65
2023/08/03 02:59:25;;;;;;;1.70;1.60;;;;;;;;;;5115415;28;20551;-65
2023/08/03 03:01:53;;;;;;;2.40;1.73;;;;;;;;;;5115328;28;20451;-65
2023/08/03 03:04:20;;;;;;;1.93;1.40;;;;;;;;;;5115156;28;20449;-65
2023/08/03 03:06:48;;;;;;;2.80;1.80;;;;;;;;;;5114978;28;20527;-65
2023/08/03 03:09:15;;;;;;;2.23;1.60;;;;;;;;;;5115312;28;20539;-65
2023/08/03 03:11:42;;;;;;;1.50;1.40;;;;;;;;;;5115202;28;20638;-65
2023/08/03 03:14:09;;;;;;;1.90;1.80;;;;;;;;;;5114162;28;20480;-65
2023/08/03 03:16:36;;;;;;;2.60;1.70;;;;;;;;;;5114976;28;20445;-65
2023/08/03 03:19:02;;;;;;;2.77;1.70;;;;;;;;;;5114876;28;20550;-65
2023/08/03 03:21:29;;;;;;;1.70;1.40;;;;;;;;;;5114737;28;20452;-65
2023/08/03 03:23:58;;;;;;;2.30;1.80;;;;;;;;;;5114899;28;20499;-65
2023/08/03 03:26:25;;;;;;;1.63;1.53;;;;;;;;;;5114849;28;20449;-65
2023/08/03 03:28:51;;;;;;;2.90;1.30;;;;;;;;;;5114715;28;20435;-65
2023/08/03 03:31:18;;;;;;;3.10;1.43;;;;;;;;;;5114663;28;20449;-65
2023/08/03 03:33:45;;;;;;;1.60;1.50;;;;;;;;;;5114448;28;20481;-65
2023/08/03 03:36:12;;;;;;;1.73;1.40;;;;;;;;;;5114493;28;20549;-65
2023/08/03 03:38:39;;;;;;;3.07;1.47;;;;;;;;;;5114589;28;20509;-65
2023/08/03 03:41:08;;;;;;;1.40;1.30;;;;;;;;;;5114593;28;20450;-65
2023/08/03 03:43:34;;;;;;;1.70;1.60;;;;;;;;;;5114491;28;20489;-65
2023/08/03 03:46:02;;;;;;;2.63;1.43;;;;;;;;;;5114439;28;20535;-65
2023/08/03 03:48:29;;;;;;;2.00;1.80;;;;;;;;;;5114266;28;20944;-65
2023/08/03 03:50:56;;;;;;;3.00;2.00;;;;;;;;;;5114532;28;20787;-65
2023/08/03 03:53:23;;;;;;;2.60;1.70;;;;;;;;;;5114335;28;20490;-65
2023/08/03 03:55:50;;;;;;;1.97;1.43;;;;;;;;;;5114131;28;20465;-65
2023/08/03 03:58:18;;;;;;;3.60;2.30;;;;;;;;;;5114176;28;20539;-65
2023/08/03 04:00:45;;;;;;;1.50;1.40;;;;;;;;;;5114012;28;20442;-65
2023/08/03 04:03:13;;;;;;;2.00;1.80;;;;;;;;;;5113811;28;20483;-65
2023/08/03 04:05:40;;;;;;;1.40;1.30;;;;;;;;;;5114130;28;20539;-65
2023/08/03 04:08:09;;;;;;;3.03;1.73;;;;;;;;;;5113886;28;21014;-65
2023/08/03 04:10:36;;;;;;;2.27;1.53;;;;;;;;;;5113894;28;20564;-65
2023/08/03 04:13:03;;;;;;;2.20;1.80;;;;;;;;;;5113761;28;20537;-65
2023/08/03 04:15:32;;;;;;;2.73;1.70;;;;;;;;;;5113779;28;20573;-65
2023/08/03 04:17:58;;;;;;;2.23;1.60;;;;;;;;;;5113742;28;20803;-65
2023/08/03 04:20:26;;;;;;;2.40;1.40;;;;;;;;;;5113855;28;20543;-65
2023/08/03 04:22:52;;;;;;;3.07;2.00;;;;;;;;;;5113818;28;20453;-65
2023/08/03 04:25:19;;;;;;;2.10;1.90;;;;;;;;;;5113761;28;20804;-65
2023/08/03 04:27:46;;;;;;;1.67;1.53;;;;;;;;;;5113593;28;20445;-65
2023/08/03 04:30:14;;;;;;;3.10;1.60;;;;;;;;;;5113614;28;20537;-65
2023/08/03 04:32:42;;;;;;;2.80;1.60;;;;;;;;;;5113642;28;20457;-65
2023/08/03 04:35:10;;;;;;;3.57;1.40;;;;;;;;;;5113615;28;20445;-65
2023/08/03 04:37:37;;;;;;;2.00;1.80;;;;;;;;;;5113623;28;20452;-65
2023/08/03 04:40:04;;;;;;;3.20;1.70;;;;;;;;;;5113452;28;20534;-65
2023/08/03 04:42:31;;;;;;;2.27;1.40;;;;;;;;;;5113438;28;20447;-65
2023/08/03 04:44:58;;;;;;;3.63;1.60;;;;;;;;;;5113310;28;20455;-65
2023/08/03 04:47:25;;;;;;;9.67;1.80;;;;;;;;;;5113756;28;20449;-65
2023/08/03 04:49:53;;;;;;;2.83;1.80;;;;;;;;;;5113450;28;20450;-65
2023/08/03 04:52:21;;;;;;;5.17;2.10;;;;;;;;;;5113467;28;21019;-65
2023/08/03 04:54:48;;;;;;;6.87;1.97;;;;;;;;;;5113063;28;20487;-65
2023/08/03 04:57:15;;;;;;;8.03;2.00;;;;;;;;;;5113281;28;20479;-65
2023/08/03 04:59:42;;;;;;;6.33;1.80;;;;;;;;;;5113439;28;20804;-65
2023/08/03 05:02:09;;;;;;;2.00;1.40;;;;;;;;;;5113175;28;20965;-65
2023/08/03 05:04:36;;;;;;;2.00;1.20;;;;;;;;;;5113369;28;20540;-65
2023/08/03 05:07:05;;;;;;;1.80;1.50;;;;;;;;;;5113223;28;20530;-65
2023/08/03 05:09:32;;;;;;;4.00;1.70;;;;;;;;;;5113206;28;20454;-65
2023/08/03 05:11:59;;;;;;;7.00;1.73;;;;;;;;;;5113085;28;21031;-65
2023/08/03 05:14:26;;;;;;;4.23;1.93;;;;;;;;;;5113197;28;20536;-65
2023/08/03 05:16:52;;;;;;;3.60;1.77;;;;;;;;;;5113238;28;20444;-65
2023/08/03 05:19:19;;;;;;;4.17;1.70;;;;;;;;;;5113006;28;20444;-65
2023/08/03 05:21:46;;;;;;;3.73;1.40;;;;;;;;;;5113146;28;20440;-65
2023/08/03 05:24:15;;;;;;;2.13;1.70;;;;;;;;;;5113022;28;20484;-65
2023/08/03 05:26:41;;;;;;;4.03;1.60;;;;;;;;;;5113153;28;20440;-65
2023/08/03 05:29:10;;;;;;;2.20;1.43;;;;;;;;;;5113152;28;20531;-65
2023/08/03 05:31:37;;;;;;;2.53;1.70;;;;;;;;;;5113073;28;20441;-65
2023/08/03 05:34:04;;;;;;;7.13;2.03;;;;;;;;;;5112891;28;20479;-65
2023/08/03 05:36:31;;;;;;;5.23;1.70;;;;;;;;;;5113187;28;20537;-65
2023/08/03 05:38:58;;;;;;;4.13;2.17;;;;;;;;;;5116696;28;20451;-65
2023/08/03 05:41:27;;;;;;;5.23;1.60;;;;;;;;;;5116947;28;20444;-65
2023/08/03 05:43:54;;;;;;;4.53;1.90;;;;;;;;;;5116813;28;20445;-65
2023/08/03 05:46:21;;;;;;;1.43;1.13;;;;;;;;;;5116630;28;21019;-65
2023/08/03 05:48:51;;;;;;;6.03;1.83;;;;;;;;;;5116664;28;20488;-65
2023/08/03 05:51:24;;;;;;;3.33;1.83;;;;;;;;;;5116557;28;20437;-65
2023/08/03 05:53:51;;;;;;;2.60;1.80;;;;;;;;;;5116684;28;20487;-65
2023/08/03 05:56:20;;;;;;;4.53;1.40;;;;;;;;;;5116213;28;20550;-65
2023/08/03 05:58:49;;;;;;;1.80;1.20;;;;;;;;;;5116406;28;20954;-65
2023/08/03 06:01:19;;;;;;;3.37;1.57;;;;;;;;;;5116353;28;20912;-65
2023/08/03 06:03:46;;;;;;;2.30;1.10;;;;;;;;;;5116323;28;20470;-65
2023/08/03 06:06:15;;;;;;;2.73;1.23;;;;;;;;;;5116210;28;20446;-65
2023/08/03 06:08:44;;;;;;;4.83;1.30;;;;;;;;;;5116379;28;20480;-65
2023/08/03 06:11:11;;;;;;;7.83;1.67;;;;;;;;;;5116304;28;20445;-65
2023/08/03 06:13:40;;;;;;;3.77;1.13;;;;;;;;;;5116135;28;21061;-65
2023/08/03 06:16:10;;;;;;;2.30;1.20;;;;;;;;;;5116102;28;20536;-65
2023/08/03 06:18:45;;;;;;;6.10;2.53;;;;;;;;;;5115946;28;20491;-65
2023/08/03 06:21:12;;;;;;;4.03;1.20;;;;;;;;;;5116148;28;20532;-65
2023/08/03 06:23:41;;;;;;;3.63;1.33;;;;;;;;;;5115978;28;20532;-65
2023/08/03 06:26:12;;;;;;;5.57;1.30;;;;;;;;;;5115864;28;20538;-65
2023/08/03 06:28:39;;;;;;;3.90;1.30;;;;;;;;;;5115861;28;20446;-65
2023/08/03 06:31:14;;;;;;;5.27;1.40;;;;;;;;;;5115751;28;20803;-65
2023/08/03 06:33:41;;;;;;;2.73;1.17;;;;;;;;;;5115826;28;20481;-65
2023/08/03 06:36:09;;;;;;;3.40;1.30;;;;;;;;;;5115843;28;20997;-65
2023/08/03 06:38:37;;;;;;;2.60;1.23;;;;;;;;;;5115695;28;20525;-64
2023/08/03 06:41:04;;;;;;;6.37;1.20;;;;;;;;;;5115604;28;20438;-64
2023/08/03 06:43:31;;;;;;;3.83;1.20;;;;;;;;;;5115491;28;20530;-64
2023/08/03 06:45:58;;;;;;;5.63;1.60;;;;;;;;;;5115666;28;20449;-64
2023/08/03 06:48:28;;;;;;;9.70;1.53;;;;;;;;;;5114207;28;20451;-65
2023/08/03 06:50:55;;;;;;;4.10;1.20;;;;;;;;;;5115449;28;20476;-65
2023/08/03 06:53:22;;;;;;;3.30;1.40;;;;;;;;;;5115307;28;20537;-64
2023/08/03 06:55:49;;;;;;;6.03;1.40;;;;;;;;;;5106897;28;20956;-65
2023/08/03 06:58:17;;;;;;;3.10;1.37;;;;;;;;;;5102718;28;20534;-64
2023/08/03 07:00:44;;;;;;;3.67;1.23;;;;;;;;;;5105317;28;20442;-64
2023/08/03 07:03:11;;;;;;;3.53;1.63;;;;;;;;;;5103187;28;20467;-64
2023/08/03 07:05:40;;;;;;;4.47;1.30;;;;;;;;;;5104676;28;20525;-61
2023/08/03 07:08:07;;;;;;;3.03;1.20;;;;;;;;;;5105233;28;20450;-68
2023/08/03 07:10:34;;;;;;;2.27;1.00;;;;;;;;;;5099904;28;20443;-64
2023/08/03 07:13:01;;;;;;;1.83;1.00;;;;;;;;;;5115196;28;20481;-62
2023/08/03 07:15:33;;;;;;;4.70;1.33;;;;;;;;;;5114832;28;20842;-62
2023/08/03 07:18:00;;;;;;;3.87;1.20;;;;;;;;;;5114831;28;20465;-70
2023/08/03 07:20:27;;;;;;;2.80;1.40;;;;;;;;;;5105733;28;20530;-61
2023/08/03 07:22:55;;;;;;;1.60;0.90;;;;;;;;;;5094259;28;20549;-66
2023/08/03 07:25:22;;;;;;;2.40;1.23;;;;;;;;;;5094257;28;20542;-69
2023/08/03 07:27:49;;;;;;;3.33;1.17;;;;;;;;;;5094396;28;20860;-66
2023/08/03 07:30:16;;;;;;;3.60;1.90;;;;;;;;;;5094159;28;20453;-62
2023/08/03 07:32:43;;;;;;;4.80;0.90;;;;;;;;;;5093620;28;20930;-67
2023/08/03 07:35:10;;;;;;;1.87;1.13;;;;;;;;;;5095895;28;21048;-65
2023/08/03 07:37:37;;;;;;;3.00;1.40;;;;;;;;;;5103275;28;20526;-64
2023/08/03 07:40:07;;;;;;;2.30;1.00;;;;;;;;;;5093473;28;20490;-63
2023/08/03 07:42:34;;;;;;;2.73;1.00;;;;;;;;;;5093990;28;20439;-61
2023/08/03 07:45:01;;;;;;;2.43;0.90;;;;;;;;;;5093775;28;21017;-70
2023/08/03 07:47:28;;;;;;;3.30;1.40;;;;;;;;;;5093792;28;20942;-66
2023/08/03 07:49:55;;;;;;;2.83;1.03;;;;;;;;;;5093570;28;20470;-64
2023/08/03 07:52:22;;;;;;;2.47;1.00;;;;;;;;;;5093669;28;20447;-63
2023/08/03 07:54:49;;;;;;;1.20;0.90;;;;;;;;;;5093478;28;20570;-69
2023/08/03 07:57:17;;;;;;;3.30;1.03;;;;;;;;;;5093639;28;20486;-66
2023/08/03 07:59:44;;;;;;;4.10;1.13;;;;;;;;;;5093237;28;20447;-66
2023/08/03 08:02:11;;;;;;;8.00;1.20;;;;;;;;;;5095857;28;20443;-68
2023/08/03 08:04:38;;;;;;;1.50;0.97;;;;;;;;;;5103757;28;20526;-66
2023/08/03 08:07:05;;;;;;;6.03;1.13;;;;;;;;;;5102073;28;20534;-67
2023/08/03 08:09:32;;;;;;;3.07;1.10;;;;;;;;;;5113953;28;20450;-66
2023/08/03 08:11:59;;;;;;;6.33;1.10;;;;;;;;;;5113968;28;20477;-66
2023/08/03 08:14:28;;;;;;;1.00;0.77;;;;;;;;;;5097281;28;20471;-66
2023/08/03 08:16:55;;;;;;;2.20;0.80;;;;;;;;;;5093236;28;20478;-68
2023/08/03 08:19:21;;;;;;;1.53;0.83;;;;;;;;;;5093129;28;20931;-67
2023/08/03 08:21:48;;;;;;;3.33;1.00;;;;;;;;;;5093429;28;20474;-68
2023/08/03 08:24:15;;;;;;;1.50;0.90;;;;;;;;;;5095039;28;20452;-67
2023/08/03 08:26:42;;;;;;;1.67;0.93;;;;;;;;;;5113691;28;20450;-70
2023/08/03 08:29:09;;;;;;;1.90;0.90;;;;;;;;;;5113171;28;20532;-65
2023/08/03 08:31:37;;;;;;;2.40;0.87;;;;;;;;;;5108219;28;20545;-67
2023/08/03 08:34:04;;;;;;;1.67;0.67;;;;;;;;;;5103843;28;20473;-70
2023/08/03 08:36:31;;;;;;;6.00;1.20;;;;;;;;;;5103284;28;20518;-69
2023/08/03 08:38:58;;;;;;;5.13;0.80;;;;;;;;;;5101799;28;20533;-66
2023/08/03 08:41:25;;;;;;;1.03;0.73;;;;;;;;;;5097817;28;20525;-81
2023/08/03 08:43:52;;;;;;;1.63;0.70;;;;;;;;;;5098027;28;20451;-66
2023/08/03 08:46:19;;;;;;;0.80;0.70;;;;;;;;;;5102831;28;20483;-68
2023/08/03 08:48:47;;;;;;;3.53;0.70;;;;;;;;;;5102844;28;20536;-71
2023/08/03 08:51:15;;;;;;;3.33;0.70;;;;;;;;;;5092423;28;20889;-68
2023/08/03 08:53:42;;;;;;;0.97;0.60;;;;;;;;;;5092601;28;20501;-79
2023/08/03 08:56:09;;;;;;;0.90;0.60;;;;;;;;;;5103290;28;20842;-65
2023/08/03 08:58:36;;;;;;;5.60;0.80;;;;;;;;;;5104708;28;20449;-67
2023/08/03 09:01:06;;;;;;;1.47;0.70;;;;;;;;;;5113041;28;20543;-64
2023/08/03 09:03:51;;;;;;;2.47;0.80;;;;;;;;;;5104948;28;20530;-70
2023/08/03 09:06:19;;;;;;;0.70;0.50;;;;;;;;;;5102749;28;20842;-69
2023/08/03 09:08:50;;;;;;;1.27;0.53;;;;;;;;;;5095826;28;20531;-67
2023/08/03 09:11:17;;;;;;;3.33;0.60;;;;;;;;;;5103317;28;20466;-75
2023/08/03 09:13:47;;;;;;;1.77;0.70;;;;;;;;;;5106007;28;20455;-65
2023/08/03 09:16:22;;;;;;;4.23;1.23;;;;;;;;;;5105587;28;20538;-67
2023/08/03 09:18:51;;;;;;;1.33;0.70;;;;;;;;;;5096511;28;20438;-70
2023/08/03 09:21:19;;;;;;;1.77;0.70;;;;;;;;;;5104663;28;20522;-63
2023/08/03 09:23:46;;;;;;;0.80;0.60;;;;;;;;;;5106173;28;20446;-69
2023/08/03 09:26:13;;;;;;;0.93;0.70;;;;;;;;;;5105867;28;20870;-68
2023/08/03 09:28:41;;;;;;;0.83;0.70;;;;;;;;;;5105399;28;20435;-62
2023/08/03 09:31:09;;;;;;;0.70;0.60;;;;;;;;;;5106329;28;20517;-62
2023/08/03 09:33:36;;;;;;;0.70;0.50;;;;;;;;;;5106666;28;20545;-64
2023/08/03 09:36:10;;;;;;;0.90;0.60;;;;;;;;;;5107625;27;20481;-62
2023/08/03 09:38:37;;;;;;;0.83;0.70;;;;;;;;;;5109144;27;20441;-64
2023/08/03 09:41:04;;;;;;;0.90;0.70;;;;;;;;;;5111422;27;20561;-62
2023/08/03 09:43:31;;;;;;;0.80;0.70;;;;;;;;;;5128205;27;20520;-74
2023/08/03 09:45:59;;;;;;;0.90;0.60;;;;;;;;;;5120835;27;20533;-65
2023/08/03 09:48:26;;;;;;;0.80;0.63;;;;;;;;;;5132091;27;20444;-65
2023/08/03 09:50:54;;;;;;;2.60;0.63;;;;;;;;;;5121739;27;20444;-66
2023/08/03 09:53:23;;;;;;;1.00;0.60;;;;;;;;;;5124685;27;20448;-64
2023/08/03 09:55:57;;;;;;;0.80;0.60;;;;;;;;;;5130527;27;20828;-64
2023/08/03 09:58:28;;;;;;;0.70;0.60;;;;;;;;;;5118305;27;20436;-71
2023/08/03 10:00:56;;;;;;;1.87;0.60;;;;;;;;;;5116142;27;20443;-65
2023/08/03 10:03:23;;;;;;;2.50;0.50;;;;;;;;;;5108862;27;20438;-66
2023/08/03 10:05:52;;;;;;;0.70;0.60;;;;;;;;;;5107846;27;20439;-65
2023/08/03 10:08:21;;;;;;;0.83;0.60;;;;;;;;;;5109342;27;20441;-64
2023/08/03 10:10:52;;;;;;;1.07;0.60;;;;;;;;;;5130443;27;20435;-79
2023/08/03 10:13:19;;;;;;;0.70;0.57;;;;;;;;;;5115988;28;20442;-79
2023/08/03 10:15:46;;;;;;;1.07;0.60;;;;;;;;;;5129711;27;20561;-73
2023/08/03 10:18:13;;;;;;;0.90;0.60;;;;;;;;;;5119191;27;20442;-66
2023/08/03 10:20:41;;;;;;;0.80;0.60;;;;;;;;;;5129071;27;20482;-66
2023/08/03 10:23:11;;;;;;;1.10;0.70;;;;;;;;;;5105683;28;20529;-68
2023/08/03 10:25:55;;;;;;;2.37;0.60;;;;;;;;;;5104932;27;20466;-67
2023/08/03 10:28:23;;;;;;;0.70;0.60;;;;;;;;;;5113197;27;20546;-67
2023/08/03 10:31:03;;;;;;;1.37;0.70;;;;;;;;;;5130160;27;20764;-69
2023/08/03 10:33:45;;;;;;;1.47;0.80;;;;;;;;;;5127603;27;20538;-75
2023/08/03 10:36:33;;;;;;;2.30;0.63;;;;;;;;;;5117725;27;20477;-70
2023/08/03 10:39:02;;;;;;;0.97;0.80;;;;;;;;;;5126942;27;20445;-71
2023/08/03 10:41:36;;;;;;;1.60;0.60;;;;;;;;;;5127243;27;20442;-71
2023/08/03 10:44:21;;;;;;;0.87;0.57;;;;;;;;;;5119271;27;20941;-67
2023/08/03 10:46:49;;;;;;;1.07;0.67;;;;;;;;;;5106787;27;20437;-70
2023/08/03 10:49:33;;;;;;;1.30;0.80;;;;;;;;;;5125835;27;20438;-66
2023/08/03 10:52:16;;;;;;;0.90;0.50;;;;;;;;;;5130736;27;20976;-66
2023/08/03 10:54:43;;;;;;;1.60;0.57;;;;;;;;;;5104835;27;20545;-67
2023/08/03 10:57:11;;;;;;;0.70;0.57;;;;;;;;;;5126422;27;20551;-66
2023/08/03 10:59:39;;;;;;;1.67;0.70;;;;;;;;;;5128126;27;20529;-71
2023/08/03 11:02:13;;;;;;;0.90;0.60;;;;;;;;;;5117899;27;20560;-63
2023/08/03 11:04:40;;;;;;;0.73;0.70;;;;;;;;;;5104106;27;20853;-66
2023/08/03 11:07:08;;;;;;;1.23;1.03;;;;;;;;;;5126431;27;20446;-67
2023/08/03 11:09:35;;;;;;;1.37;0.60;;;;;;;;;;5127064;27;20975;-67
2023/08/03 11:12:02;;;;;;;0.97;0.70;;;;;;;;;;5118249;27;20434;-67
2023/08/03 11:14:30;;;;;;;1.00;0.70;;;;;;;;;;5112506;27;20442;-76
2023/08/03 11:16:57;;;;;;;0.90;0.70;;;;;;;;;;5104734;28;20435;-66
2023/08/03 11:19:27;;;;;;;1.63;0.60;;;;;;;;;;5103461;28;20470;-78
2023/08/03 11:21:54;;;;;;;2.07;1.03;;;;;;;;;;5106191;28;20438;-76
2023/08/03 11:24:21;;;;;;;1.70;0.80;;;;;;;;;;5114693;28;20499;-68
2023/08/03 11:26:48;;;;;;;1.57;0.70;;;;;;;;;;5114552;28;20442;-75
2023/08/03 11:29:15;;;;;;;1.00;0.77;;;;;;;;;;5114567;28;20823;-64
2023/08/03 11:31:43;;;;;;;0.70;0.60;;;;;;;;;;5114334;28;21048;-66
2023/08/03 11:34:10;;;;;;;0.93;0.80;;;;;;;;;;5114097;28;20480;-73
2023/08/03 11:36:37;;;;;;;2.10;0.60;;;;;;;;;;5114194;28;20488;-70
2023/08/03 11:39:04;;;;;;;0.73;0.70;;;;;;;;;;5114188;28;20854;-72
2023/08/03 11:41:31;;;;;;;1.60;0.60;;;;;;;;;;5114070;28;21029;-72
2023/08/03 11:43:58;;;;;;;0.93;0.60;;;;;;;;;;5102649;28;20525;-66
2023/08/03 11:46:27;;;;;;;1.10;0.60;;;;;;;;;;5102419;28;20443;-69
2023/08/03 11:48:58;;;;;;;1.57;0.50;;;;;;;;;;5101080;28;20939;-70
2023/08/03 11:51:31;;;;;;;1.70;0.80;;;;;;;;;;5099708;28;20448;-68
2023/08/03 11:54:01;;;;;;;1.37;0.57;;;;;;;;;;5102170;28;20443;-69
2023/08/03 11:56:28;;;;;;;0.90;0.70;;;;;;;;;;5104028;28;20482;-69
2023/08/03 11:58:56;;;;;;;2.07;0.63;;;;;;;;;;5102542;28;20443;-68
2023/08/03 12:01:26;;;;;;;0.80;0.70;;;;;;;;;;5103410;28;20446;-68
2023/08/03 12:04:05;;;;;;;1.00;0.60;;;;;;;;;;5102432;28;20446;-68
2023/08/03 12:06:43;;;;;;;0.97;0.60;;;;;;;;;;5103690;28;20456;-68
2023/08/03 12:09:10;;;;;;;2.10;0.70;;;;;;;;;;5104335;28;20438;-68
2023/08/03 12:11:37;;;;;;;1.70;0.87;;;;;;;;;;5101953;28;20435;-68
2023/08/03 12:14:04;;;;;;;1.00;0.80;;;;;;;;;;5100424;28;20535;-68
2023/08/03 12:16:31;;;;;;;1.00;0.80;;;;;;;;;;5103219;28;20904;-68
2023/08/03 12:18:58;;;;;;;1.53;0.67;;;;;;;;;;5103682;28;20446;-68
2023/08/03 12:21:26;;;;;;;4.07;1.07;;;;;;;;;;5102049;28;20439;-68
2023/08/03 12:23:53;;;;;;;0.60;0.50;;;;;;;;;;5103045;28;20536;-69
2023/08/03 12:26:20;;;;;;;0.80;0.70;;;;;;;;;;5103775;28;20538;-69
2023/08/03 12:28:47;;;;;;;1.00;0.60;;;;;;;;;;5101388;28;20449;-68
2023/08/03 12:31:14;;;;;;;3.63;0.60;;;;;;;;;;5101667;28;20533;-68
2023/08/03 12:33:41;;;;;;;1.93;0.80;;;;;;;;;;5101440;28;20447;-68
2023/08/03 12:36:08;;;;;;;1.13;0.60;;;;;;;;;;5101223;28;21069;-68
2023/08/03 12:38:36;;;;;;;1.20;0.90;;;;;;;;;;5103323;28;20521;-67
2023/08/03 12:41:03;;;;;;;1.23;0.57;;;;;;;;;;5106760;28;20473;-67
2023/08/03 12:43:30;;;;;;;2.10;0.70;;;;;;;;;;5093170;28;20449;-68
2023/08/03 12:45:57;;;;;;;1.27;0.80;;;;;;;;;;5092917;28;20537;-68
2023/08/03 12:48:24;;;;;;;2.97;0.70;;;;;;;;;;5093004;28;20529;-68
2023/08/03 12:50:51;;;;;;;0.80;0.70;;;;;;;;;;5092943;28;20537;-68
2023/08/03 12:53:18;;;;;;;1.10;0.70;;;;;;;;;;5093028;28;20534;-68
2023/08/03 12:55:46;;;;;;;1.10;0.60;;;;;;;;;;5092503;28;20478;-68
2023/08/03 12:58:13;;;;;;;2.40;0.63;;;;;;;;;;5092600;28;20454;-68
2023/08/03 13:00:41;;;;;;;0.80;0.60;;;;;;;;;;5091251;28;20526;-68
2023/08/03 13:03:08;;;;;;;0.70;0.60;;;;;;;;;;5092186;28;20496;-68
2023/08/03 13:05:35;;;;;;;1.30;0.70;;;;;;;;;;5093838;28;20500;-68
2023/08/03 13:08:02;;;;;;;2.10;1.00;;;;;;;;;;5098496;28;20446;-68
2023/08/03 13:10:29;;;;;;;0.90;0.60;;;;;;;;;;5092895;28;20480;-69
2023/08/03 13:12:57;;;;;;;0.70;0.60;;;;;;;;;;5095397;28;20471;-68
2023/08/03 13:15:24;;;;;;;1.93;0.87;;;;;;;;;;5101755;28;20789;-69
2023/08/03 13:17:52;;;;;;;0.83;0.70;;;;;;;;;;5102493;28;20443;-69
2023/08/03 13:20:19;;;;;;;1.57;0.77;;;;;;;;;;5101243;28;20829;-68
2023/08/03 13:22:46;;;;;;;2.47;0.63;;;;;;;;;;5102440;28;20529;-69
2023/08/03 13:25:13;;;;;;;0.97;0.60;;;;;;;;;;5103345;28;20522;-69
2023/08/03 13:27:40;;;;;;;0.80;0.60;;;;;;;;;;5101264;28;20443;-69
2023/08/03 13:30:09;;;;;;;0.87;0.60;;;;;;;;;;5102480;28;20872;-69
2023/08/03 13:32:37;;;;;;;1.67;0.70;;;;;;;;;;5103396;28;20434;-69
2023/08/03 13:35:04;;;;;;;1.27;0.87;;;;;;;;;;5097394;28;20442;-69
2023/08/03 13:37:31;;;;;;;1.80;0.60;;;;;;;;;;5101487;28;20470;-68
2023/08/03 13:39:58;;;;;;;1.20;0.63;;;;;;;;;;5101499;28;20534;-68
2023/08/03 13:42:25;;;;;;;0.80;0.60;;;;;;;;;;5101243;28;20874;-68
2023/08/03 13:44:52;;;;;;;1.27;0.60;;;;;;;;;;5090527;28;20534;-68
2023/08/03 13:47:20;;;;;;;1.53;0.60;;;;;;;;;;5099518;28;20449;-68
2023/08/03 13:49:47;;;;;;;1.47;0.70;;;;;;;;;;5103185;28;20903;-68
2023/08/03 13:52:14;;;;;;;1.33;0.70;;;;;;;;;;5101161;28;20437;-69
2023/08/03 13:54:41;;;;;;;0.60;0.60;;;;;;;;;;5101771;28;20549;-68
2023/08/03 13:57:09;;;;;;;1.43;0.60;;;;;;;;;;5102954;28;20560;-68
2023/08/03 13:59:36;;;;;;;0.70;0.50;;;;;;;;;;5105161;28;20443;-68
2023/08/03 14:02:04;;;;;;;0.80;0.60;;;;;;;;;;5111517;28;20451;-68
2023/08/03 14:04:34;;;;;;;0.80;0.60;;;;;;;;;;5095647;28;20474;-68
2023/08/03 14:07:01;;;;;;;1.00;0.80;;;;;;;;;;5095699;28;20438;-68
2023/08/03 14:09:28;;;;;;;0.80;0.50;;;;;;;;;;5095734;28;20654;-68
2023/08/03 14:11:54;;;;;;;1.20;0.80;;;;;;;;;;5096086;28;20873;-68
2023/08/03 14:14:21;;;;;;;1.20;0.70;;;;;;;;;;5095634;28;20530;-68
2023/08/03 14:16:48;;;;;;;0.90;0.70;;;;;;;;;;5093658;28;20865;-68
2023/08/03 14:19:15;;;;;;;1.57;0.70;;;;;;;;;;5093634;28;20500;-68
2023/08/03 14:21:44;;;;;;;0.60;0.50;;;;;;;;;;5093783;28;20539;-68
2023/08/03 14:24:11;;;;;;;0.80;0.80;;;;;;;;;;5093462;28;20922;-68
2023/08/03 14:26:38;;;;;;;0.80;0.70;;;;;;;;;;5093568;28;20613;-68
2023/08/03 14:29:05;;;;;;;0.80;0.60;;;;;;;;;;5093373;28;20449;-69
2023/08/03 14:31:32;;;;;;;1.67;0.60;;;;;;;;;;5095023;28;20534;-68
2023/08/03 14:33:59;;;;;;;1.20;0.80;;;;;;;;;;5095350;28;20446;-68
2023/08/03 14:36:26;;;;;;;2.20;0.73;;;;;;;;;;5095069;28;20510;-68
2023/08/03 14:38:55;;;;;;;1.67;0.70;;;;;;;;;;5095676;28;20451;-68
2023/08/03 14:41:25;;;;;;;1.90;0.70;;;;;;;;;;5095455;28;20806;-68
2023/08/03 14:43:52;;;;;;;0.87;0.60;;;;;;;;;;5095046;28;20443;-68
2023/08/03 14:46:19;;;;;;;0.90;0.70;;;;;;;;;;5095212;28;20893;-68